PWSweather.com
Personal Weather Stations
Station Observations

SkegnessGB

Lat: 53.147585, Lon: 0.345774

Elevation: 18

Station Type: Fine Offset WH3080

http://www.skegnessweather.info/

Latest ConditionsUpdated 9:36:00 PM GMT Thursday, May 25, 2017
Currently Today's Max Today's Min Today's Average
Temperature 61.2°F16.2°C 73.6°F23.1°C 54.3°F12.4°C 64.9°F18.3°C
Dew Point 56.0°F13.3°C 61.8°F16.6°C 51.8°F11.0°C 57.1°F13.9°C
Winds 1.2 mph W1.9 kmh W 5.5 mph NE8.9 kmh NE - 2.1 mph 3.4 kmh
Wind Gusts 4.5 mph7.2 kmh 10.8 mph17.4 kmh - -
Humidity 83% 96% 62% 77%
Pressure 30.27 in1025.1 mb 30.35 in1027.8 mb 30.26 in1024.7 mb -
Hour Temp Dew Point Humidity Winds Wind Gusts Pressure Precip Precip Rate Daily Precip Total
09:36 PM 61.2°F16.2°C 56.0°F13.3°C 83% 1.2 mph W1.9 kmh W 4.5 mph7.2 kmh 30.27 in1025.1 mb 0.00 in0.0 mm 0.00 in0.0 mm 0.00 in0.0 mm
09:24 PM 61.7°F16.5°C 56.5°F13.6°C 83% 1.8 mph SE2.9 kmh SE 6.1 mph9.8 kmh 30.28 in1025.4 mb 0.00 in0.0 mm 0.00 in0.0 mm 0.00 in0.0 mm
09:12 PM 61.7°F16.5°C 56.5°F13.6°C 83% 1.7 mph SE2.7 kmh SE 4.5 mph7.2 kmh 30.27 in1025.1 mb 0.00 in0.0 mm 0.00 in0.0 mm 0.00 in0.0 mm
09:00 PM 61.9°F16.6°C 56.7°F13.7°C 83% 2.3 mph S3.7 kmh S 5.4 mph8.7 kmh 30.27 in1025.1 mb 0.00 in0.0 mm 0.00 in0.0 mm 0.00 in0.0 mm
08:48 PM 61.9°F16.6°C 56.7°F13.7°C 83% 2.6 mph SSE4.2 kmh SSE 6.1 mph9.8 kmh 30.27 in1025.1 mb 0.00 in0.0 mm 0.00 in0.0 mm 0.00 in0.0 mm
08:36 PM 61.9°F16.6°C 56.7°F13.7°C 83% 2.8 mph E4.5 kmh E 7.0 mph11.3 kmh 30.27 in1025.1 mb 0.00 in0.0 mm 0.00 in0.0 mm 0.00 in0.0 mm
08:24 PM 61.9°F16.6°C 56.3°F13.5°C 82% 2.7 mph E4.3 kmh E 8.4 mph13.5 kmh 30.27 in1025.1 mb 0.00 in0.0 mm 0.00 in0.0 mm 0.00 in0.0 mm
08:12 PM 62.8°F17.1°C 56.5°F13.6°C 80% 3.3 mph E5.3 kmh E 7.0 mph11.3 kmh 30.27 in1025.1 mb 0.00 in0.0 mm 0.00 in0.0 mm 0.00 in0.0 mm
08:00 PM 63.5°F17.5°C 56.9°F13.8°C 79% 3.6 mph NE5.8 kmh NE 8.4 mph13.5 kmh 30.27 in1025.1 mb 0.00 in0.0 mm 0.00 in0.0 mm 0.00 in0.0 mm
07:48 PM 63.9°F17.7°C 56.9°F13.8°C 78% 3.4 mph E5.5 kmh E 7.0 mph11.3 kmh 30.26 in1024.7 mb 0.00 in0.0 mm 0.00 in0.0 mm 0.00 in0.0 mm
07:36 PM 64.6°F18.1°C 56.5°F13.6°C 75% 2.4 mph NE3.9 kmh NE 7.7 mph12.4 kmh 30.26 in1024.7 mb 0.00 in0.0 mm 0.00 in0.0 mm 0.00 in0.0 mm
07:24 PM 65.3°F18.5°C 57.2°F14.0°C 75% 2.9 mph NE4.7 kmh NE 9.9 mph15.9 kmh 30.26 in1024.7 mb 0.00 in0.0 mm 0.00 in0.0 mm 0.00 in0.0 mm
07:12 PM 65.5°F18.6°C 57.0°F13.9°C 74% 2.8 mph ENE4.5 kmh ENE 7.0 mph11.3 kmh 30.26 in1024.7 mb 0.00 in0.0 mm 0.00 in0.0 mm 0.00 in0.0 mm
07:00 PM 66.6°F19.2°C 56.9°F13.8°C 71% 2.0 mph E3.2 kmh E 5.4 mph8.7 kmh 30.26 in1024.7 mb 0.00 in0.0 mm 0.00 in0.0 mm 0.00 in0.0 mm
06:48 PM 67.1°F19.5°C 57.0°F13.9°C 70% 2.1 mph NE3.4 kmh NE 5.4 mph8.7 kmh 30.26 in1024.7 mb 0.00 in0.0 mm 0.00 in0.0 mm 0.00 in0.0 mm
06:36 PM 67.6°F19.8°C 57.1°F13.9°C 69% 2.5 mph ENE4.0 kmh ENE 5.4 mph8.7 kmh 30.26 in1024.7 mb 0.00 in0.0 mm 0.00 in0.0 mm 0.00 in0.0 mm
06:24 PM 68.4°F20.2°C 57.0°F13.9°C 67% 3.2 mph ENE5.1 kmh ENE 8.4 mph13.5 kmh 30.26 in1024.7 mb 0.00 in0.0 mm 0.00 in0.0 mm 0.00 in0.0 mm
06:12 PM 68.4°F20.2°C 57.0°F13.9°C 67% 2.4 mph NE3.9 kmh NE 7.0 mph11.3 kmh 30.26 in1024.7 mb 0.00 in0.0 mm 0.00 in0.0 mm 0.00 in0.0 mm
06:00 PM 68.5°F20.3°C 57.2°F14.0°C 67% 3.2 mph NE5.1 kmh NE 8.4 mph13.5 kmh 30.27 in1025.1 mb 0.00 in0.0 mm 0.00 in0.0 mm 0.00 in0.0 mm
05:48 PM 68.7°F20.4°C 57.8°F14.3°C 68% 3.5 mph NE5.6 kmh NE 8.4 mph13.5 kmh 30.27 in1025.1 mb 0.00 in0.0 mm 0.00 in0.0 mm 0.00 in0.0 mm
05:36 PM 68.2°F20.1°C 56.8°F13.8°C 67% 3.6 mph ENE5.8 kmh ENE 7.7 mph12.4 kmh 30.27 in1025.1 mb 0.00 in0.0 mm 0.00 in0.0 mm 0.00 in0.0 mm
05:24 PM 69.3°F20.7°C 57.4°F14.1°C 66% 3.6 mph ENE5.8 kmh ENE 7.7 mph12.4 kmh 30.27 in1025.1 mb 0.00 in0.0 mm 0.00 in0.0 mm 0.00 in0.0 mm
05:12 PM 69.3°F20.7°C 57.4°F14.1°C 66% 4.4 mph NE7.1 kmh NE 9.9 mph15.9 kmh 30.27 in1025.1 mb 0.00 in0.0 mm 0.00 in0.0 mm 0.00 in0.0 mm
05:00 PM 70.0°F21.1°C 57.7°F14.3°C 65% 3.9 mph E6.3 kmh E 9.3 mph15.0 kmh 30.27 in1025.1 mb 0.00 in0.0 mm 0.00 in0.0 mm 0.00 in0.0 mm
04:48 PM 70.2°F21.2°C 58.3°F14.6°C 66% 3.8 mph NE6.1 kmh NE 9.3 mph15.0 kmh 30.28 in1025.4 mb 0.00 in0.0 mm 0.00 in0.0 mm 0.00 in0.0 mm
04:36 PM 70.0°F21.1°C 58.1°F14.5°C 66% 3.9 mph NE6.3 kmh NE 8.4 mph13.5 kmh 30.28 in1025.4 mb 0.00 in0.0 mm 0.00 in0.0 mm 0.00 in0.0 mm
04:24 PM 69.3°F20.7°C 58.3°F14.6°C 68% 4.3 mph ENE6.9 kmh ENE 8.4 mph13.5 kmh 30.28 in1025.4 mb 0.00 in0.0 mm 0.00 in0.0 mm 0.00 in0.0 mm
04:12 PM 69.3°F20.7°C 58.3°F14.6°C 68% 5.5 mph NE8.9 kmh NE 9.3 mph15.0 kmh 30.28 in1025.4 mb 0.00 in0.0 mm 0.00 in0.0 mm 0.00 in0.0 mm
04:00 PM 69.8°F21.0°C 58.0°F14.4°C 66% 4.2 mph NE6.8 kmh NE 9.3 mph15.0 kmh 30.29 in1025.7 mb 0.00 in0.0 mm 0.00 in0.0 mm 0.00 in0.0 mm
03:48 PM 69.4°F20.8°C 58.0°F14.4°C 67% 4.1 mph NE6.6 kmh NE 8.4 mph13.5 kmh 30.29 in1025.7 mb 0.00 in0.0 mm 0.00 in0.0 mm 0.00 in0.0 mm
03:36 PM 69.1°F20.6°C 57.7°F14.3°C 67% 4.0 mph ENE6.4 kmh ENE 9.3 mph15.0 kmh 30.29 in1025.7 mb 0.00 in0.0 mm 0.00 in0.0 mm 0.00 in0.0 mm
03:24 PM 68.5°F20.3°C 57.6°F14.2°C 68% 4.8 mph ENE7.7 kmh ENE 10.8 mph17.4 kmh 30.29 in1025.7 mb 0.00 in0.0 mm 0.00 in0.0 mm 0.00 in0.0 mm
03:12 PM 69.6°F20.9°C 57.8°F14.3°C 66% 4.3 mph ENE6.9 kmh ENE 10.8 mph17.4 kmh 30.30 in1026.1 mb 0.00 in0.0 mm 0.00 in0.0 mm 0.00 in0.0 mm
03:00 PM 69.6°F20.9°C 58.2°F14.6°C 67% 3.6 mph NE5.8 kmh NE 9.9 mph15.9 kmh 30.30 in1026.1 mb 0.00 in0.0 mm 0.00 in0.0 mm 0.00 in0.0 mm
02:48 PM 69.1°F20.6°C 57.7°F14.3°C 67% 4.3 mph NE6.9 kmh NE 8.4 mph13.5 kmh 30.29 in1025.7 mb 0.00 in0.0 mm 0.00 in0.0 mm 0.00 in0.0 mm
02:36 PM 68.9°F20.5°C 57.5°F14.2°C 67% 3.6 mph NE5.8 kmh NE 8.4 mph13.5 kmh 30.30 in1026.1 mb 0.00 in0.0 mm 0.00 in0.0 mm 0.00 in0.0 mm
02:24 PM 68.0°F20.0°C 57.5°F14.2°C 69% 4.4 mph NE7.1 kmh NE 9.3 mph15.0 kmh 30.30 in1026.1 mb 0.00 in0.0 mm 0.00 in0.0 mm 0.00 in0.0 mm
02:12 PM 67.1°F19.5°C 57.4°F14.1°C 71% 4.8 mph E7.7 kmh E 10.8 mph17.4 kmh 30.30 in1026.1 mb 0.00 in0.0 mm 0.00 in0.0 mm 0.00 in0.0 mm
02:00 PM 66.4°F19.1°C 57.1°F13.9°C 72% 5.1 mph NE8.2 kmh NE 10.8 mph17.4 kmh 30.30 in1026.1 mb 0.00 in0.0 mm 0.00 in0.0 mm 0.00 in0.0 mm
01:48 PM 66.9°F19.4°C 56.8°F13.8°C 70% 5.1 mph NE8.2 kmh NE 10.8 mph17.4 kmh 30.30 in1026.1 mb 0.00 in0.0 mm 0.00 in0.0 mm 0.00 in0.0 mm
01:36 PM 67.3°F19.6°C 57.2°F14.0°C 70% 5.4 mph NE8.7 kmh NE 10.8 mph17.4 kmh 30.30 in1026.1 mb 0.00 in0.0 mm 0.00 in0.0 mm 0.00 in0.0 mm
01:24 PM 67.6°F19.8°C 57.5°F14.2°C 70% 4.5 mph ENE7.2 kmh ENE 9.9 mph15.9 kmh 30.31 in1026.4 mb 0.00 in0.0 mm 0.00 in0.0 mm 0.00 in0.0 mm
01:12 PM 68.7°F20.4°C 57.3°F14.1°C 67% 4.4 mph NE7.1 kmh NE 10.8 mph17.4 kmh 30.32 in1026.8 mb 0.00 in0.0 mm 0.00 in0.0 mm 0.00 in0.0 mm
01:00 PM 70.0°F21.1°C 57.7°F14.3°C 65% 4.0 mph ENE6.4 kmh ENE 8.4 mph13.5 kmh 30.32 in1026.8 mb 0.00 in0.0 mm 0.00 in0.0 mm 0.00 in0.0 mm
12:48 PM 71.4°F21.9°C 58.6°F14.8°C 64% 3.8 mph ENE6.1 kmh ENE 7.7 mph12.4 kmh 30.32 in1026.8 mb 0.00 in0.0 mm 0.00 in0.0 mm 0.00 in0.0 mm
12:36 PM 72.7°F22.6°C 59.8°F15.4°C 64% 3.0 mph ENE4.8 kmh ENE 7.0 mph11.3 kmh 30.32 in1026.8 mb 0.00 in0.0 mm 0.00 in0.0 mm 0.00 in0.0 mm
12:24 PM 72.5°F22.5°C 60.5°F15.8°C 66% 2.6 mph NE4.2 kmh NE 7.7 mph12.4 kmh 30.32 in1026.8 mb 0.00 in0.0 mm 0.00 in0.0 mm 0.00 in0.0 mm
12:12 PM 71.1°F21.7°C 58.7°F14.8°C 65% 2.7 mph ESE4.3 kmh ESE 6.1 mph9.8 kmh 30.32 in1026.8 mb 0.00 in0.0 mm 0.00 in0.0 mm 0.00 in0.0 mm
12:00 PM 72.3°F22.4°C 59.9°F15.5°C 65% 2.8 mph ENE4.5 kmh ENE 5.4 mph8.7 kmh 30.32 in1026.8 mb 0.00 in0.0 mm 0.00 in0.0 mm 0.00 in0.0 mm
11:48 AM 72.0°F22.2°C 60.0°F15.6°C 66% 3.0 mph NE4.8 kmh NE 7.7 mph12.4 kmh 30.32 in1026.8 mb 0.00 in0.0 mm 0.00 in0.0 mm 0.00 in0.0 mm
11:36 AM 72.5°F22.5°C 59.2°F15.1°C 63% 2.6 mph NE4.2 kmh NE 6.1 mph9.8 kmh 30.32 in1026.8 mb 0.00 in0.0 mm 0.00 in0.0 mm 0.00 in0.0 mm
11:24 AM 73.6°F23.1°C 59.8°F15.4°C 62% 2.1 mph E3.4 kmh E 5.4 mph8.7 kmh 30.32 in1026.8 mb 0.00 in0.0 mm 0.00 in0.0 mm 0.00 in0.0 mm
11:12 AM 73.2°F22.9°C 59.9°F15.5°C 63% 2.2 mph ESE3.5 kmh ESE 5.4 mph8.7 kmh 30.33 in1027.1 mb 0.00 in0.0 mm 0.00 in0.0 mm 0.00 in0.0 mm
11:00 AM 73.0°F22.8°C 59.3°F15.2°C 62% 2.0 mph E3.2 kmh E 6.1 mph9.8 kmh 30.33 in1027.1 mb 0.00 in0.0 mm 0.00 in0.0 mm 0.00 in0.0 mm
10:48 AM 72.3°F22.4°C 59.9°F15.5°C 65% 1.7 mph ESE2.7 kmh ESE 4.5 mph7.2 kmh 30.33 in1027.1 mb 0.00 in0.0 mm 0.00 in0.0 mm 0.00 in0.0 mm
10:36 AM 70.3°F21.3°C 58.0°F14.4°C 65% 2.1 mph E3.4 kmh E 4.5 mph7.2 kmh 30.33 in1027.1 mb 0.00 in0.0 mm 0.00 in0.0 mm 0.00 in0.0 mm
10:24 AM 70.0°F21.1°C 57.7°F14.3°C 65% 2.6 mph ENE4.2 kmh ENE 6.1 mph9.8 kmh 30.33 in1027.1 mb 0.00 in0.0 mm 0.00 in0.0 mm 0.00 in0.0 mm
10:12 AM 69.8°F21.0°C 58.0°F14.4°C 66% 3.0 mph ENE4.8 kmh ENE 4.5 mph7.2 kmh 30.34 in1027.4 mb 0.00 in0.0 mm 0.00 in0.0 mm 0.00 in0.0 mm
10:00 AM 70.3°F21.3°C 58.0°F14.4°C 65% 1.8 mph NE2.9 kmh NE 4.5 mph7.2 kmh 30.34 in1027.4 mb 0.00 in0.0 mm 0.00 in0.0 mm 0.00 in0.0 mm
09:48 AM 70.2°F21.2°C 58.7°F14.8°C 67% 2.1 mph E3.4 kmh E 3.8 mph6.1 kmh 30.35 in1027.8 mb 0.00 in0.0 mm 0.00 in0.0 mm 0.00 in0.0 mm
09:36 AM 69.3°F20.7°C 57.9°F14.4°C 67% 2.5 mph ESE4.0 kmh ESE 5.4 mph8.7 kmh 30.35 in1027.8 mb 0.00 in0.0 mm 0.00 in0.0 mm 0.00 in0.0 mm
09:24 AM 70.2°F21.2°C 57.9°F14.4°C 65% 2.3 mph E3.7 kmh E 5.4 mph8.7 kmh 30.34 in1027.4 mb 0.00 in0.0 mm 0.00 in0.0 mm 0.00 in0.0 mm
09:12 AM 70.0°F21.1°C 58.5°F14.7°C 67% 1.7 mph ESE2.7 kmh ESE 5.4 mph8.7 kmh 30.34 in1027.4 mb 0.00 in0.0 mm 0.00 in0.0 mm 0.00 in0.0 mm
09:00 AM 68.5°F20.3°C 58.0°F14.4°C 69% 2.5 mph ENE4.0 kmh ENE 6.1 mph9.8 kmh 30.34 in1027.4 mb 0.00 in0.0 mm 0.00 in0.0 mm 0.00 in0.0 mm
08:48 AM 69.4°F20.8°C 58.4°F14.7°C 68% 1.8 mph E2.9 kmh E 4.5 mph7.2 kmh 30.34 in1027.4 mb 0.00 in0.0 mm 0.00 in0.0 mm 0.00 in0.0 mm
08:36 AM 71.2°F21.8°C 59.3°F15.2°C 66% 1.0 mph SSE1.6 kmh SSE 3.8 mph6.1 kmh 30.34 in1027.4 mb 0.00 in0.0 mm 0.00 in0.0 mm 0.00 in0.0 mm
08:24 AM 69.6°F20.9°C 58.6°F14.8°C 68% 1.9 mph ESE3.1 kmh ESE 4.5 mph7.2 kmh 30.34 in1027.4 mb 0.00 in0.0 mm 0.00 in0.0 mm 0.00 in0.0 mm
08:12 AM 70.2°F21.2°C 58.3°F14.6°C 66% 1.8 mph SE2.9 kmh SE 4.5 mph7.2 kmh 30.34 in1027.4 mb 0.00 in0.0 mm 0.00 in0.0 mm 0.00 in0.0 mm
08:00 AM 70.0°F21.1°C 58.1°F14.5°C 66% 1.7 mph ESE2.7 kmh ESE 4.5 mph7.2 kmh 30.34 in1027.4 mb 0.00 in0.0 mm 0.00 in0.0 mm 0.00 in0.0 mm
07:48 AM 70.5°F21.4°C 59.5°F15.3°C 68% 0.8 mph SSE1.3 kmh SSE 3.8 mph6.1 kmh 30.34 in1027.4 mb 0.00 in0.0 mm 0.00 in0.0 mm 0.00 in0.0 mm
07:36 AM 70.7°F21.5°C 59.2°F15.1°C 67% 0.8 mph ESE1.3 kmh ESE 4.5 mph7.2 kmh 30.35 in1027.8 mb 0.00 in0.0 mm 0.00 in0.0 mm 0.00 in0.0 mm
07:24 AM 70.7°F21.5°C 61.3°F16.3°C 72% 0.2 mph SW0.3 kmh SW 2.3 mph3.7 kmh 30.35 in1027.8 mb 0.00 in0.0 mm 0.00 in0.0 mm 0.00 in0.0 mm
07:12 AM 68.5°F20.3°C 59.6°F15.3°C 73% 0.5 mph S0.8 kmh S 2.3 mph3.7 kmh 30.34 in1027.4 mb 0.00 in0.0 mm 0.00 in0.0 mm 0.00 in0.0 mm
07:00 AM 68.4°F20.2°C 59.0°F15.0°C 72% 1.1 mph E1.8 kmh E 4.5 mph7.2 kmh 30.34 in1027.4 mb 0.00 in0.0 mm 0.00 in0.0 mm 0.00 in0.0 mm
06:48 AM 68.9°F20.5°C 61.8°F16.6°C 78% 0.1 mph SSW0.2 kmh SSW 2.3 mph3.7 kmh 30.34 in1027.4 mb 0.00 in0.0 mm 0.00 in0.0 mm 0.00 in0.0 mm
06:36 AM 65.8°F18.8°C 60.6°F15.9°C 83% 0.3 mph WSW0.5 kmh WSW 3.2 mph5.1 kmh 30.34 in1027.4 mb 0.00 in0.0 mm 0.00 in0.0 mm 0.00 in0.0 mm
06:24 AM 63.7°F17.6°C 59.1°F15.1°C 85% 0.5 mph WSW0.8 kmh WSW 2.3 mph3.7 kmh 30.34 in1027.4 mb 0.00 in0.0 mm 0.00 in0.0 mm 0.00 in0.0 mm
06:12 AM 62.8°F17.1°C 58.5°F14.7°C 86% 0.2 mph WSW0.3 kmh WSW 2.3 mph3.7 kmh 30.34 in1027.4 mb 0.00 in0.0 mm 0.00 in0.0 mm 0.00 in0.0 mm
06:00 AM 61.2°F16.2°C 57.3°F14.1°C 87% 0.5 mph W0.8 kmh W 2.3 mph3.7 kmh 30.34 in1027.4 mb 0.00 in0.0 mm 0.00 in0.0 mm 0.00 in0.0 mm
05:48 AM 60.3°F15.7°C 57.3°F14.1°C 90% 0.7 mph WSW1.1 kmh WSW 3.2 mph5.1 kmh 30.34 in1027.4 mb 0.00 in0.0 mm 0.00 in0.0 mm 0.00 in0.0 mm
05:36 AM 59.7°F15.4°C 57.4°F14.1°C 92% 0.8 mph W1.3 kmh W 2.3 mph3.7 kmh 30.33 in1027.1 mb 0.00 in0.0 mm 0.00 in0.0 mm 0.00 in0.0 mm
05:24 AM 60.1°F15.6°C 58.1°F14.5°C 93% 0.1 mph SW0.2 kmh SW 2.3 mph3.7 kmh 30.33 in1027.1 mb 0.00 in0.0 mm 0.00 in0.0 mm 0.00 in0.0 mm
05:12 AM 58.8°F14.9°C 57.4°F14.1°C 95% Calm Calm 1.6 mph2.6 kmh 30.33 in1027.1 mb 0.00 in0.0 mm 0.00 in0.0 mm 0.00 in0.0 mm
05:00 AM 57.0°F13.9°C 55.9°F13.3°C 96% 0.2 mph WSW0.3 kmh WSW 2.3 mph3.7 kmh 30.33 in1027.1 mb 0.00 in0.0 mm 0.00 in0.0 mm 0.00 in0.0 mm
04:48 AM 56.1°F13.4°C 54.7°F12.6°C 95% 0.2 mph W0.3 kmh W 2.3 mph3.7 kmh 30.33 in1027.1 mb 0.00 in0.0 mm 0.00 in0.0 mm 0.00 in0.0 mm
04:36 AM 55.4°F13.0°C 54.0°F12.2°C 95% 0.3 mph WSW0.5 kmh WSW 1.6 mph2.6 kmh 30.32 in1026.8 mb 0.00 in0.0 mm 0.00 in0.0 mm 0.00 in0.0 mm
04:24 AM 54.9°F12.7°C 53.7°F12.1°C 96% 0.3 mph WSW0.5 kmh WSW 1.6 mph2.6 kmh 30.32 in1026.8 mb 0.00 in0.0 mm 0.00 in0.0 mm 0.00 in0.0 mm
04:12 AM 54.7°F12.6°C 53.6°F12.0°C 96% 0.4 mph W0.6 kmh W 2.3 mph3.7 kmh 30.33 in1027.1 mb 0.00 in0.0 mm 0.00 in0.0 mm 0.00 in0.0 mm
04:00 AM 54.7°F12.6°C 53.6°F12.0°C 96% 0.3 mph WSW0.5 kmh WSW 2.3 mph3.7 kmh 30.32 in1026.8 mb 0.00 in0.0 mm 0.00 in0.0 mm 0.00 in0.0 mm
03:48 AM 54.9°F12.7°C 53.7°F12.1°C 96% 0.7 mph W1.1 kmh W 2.3 mph3.7 kmh 30.32 in1026.8 mb 0.00 in0.0 mm 0.00 in0.0 mm 0.00 in0.0 mm
03:36 AM 55.0°F12.8°C 53.9°F12.2°C 96% 0.5 mph WSW0.8 kmh WSW 1.6 mph2.6 kmh 30.32 in1026.8 mb 0.00 in0.0 mm 0.00 in0.0 mm 0.00 in0.0 mm
03:24 AM 55.2°F12.9°C 54.1°F12.3°C 96% 0.5 mph WSW0.8 kmh WSW 2.3 mph3.7 kmh 30.32 in1026.8 mb 0.00 in0.0 mm 0.00 in0.0 mm 0.00 in0.0 mm
03:12 AM 55.4°F13.0°C 54.0°F12.2°C 95% 0.4 mph WSW0.6 kmh WSW 2.3 mph3.7 kmh 30.32 in1026.8 mb 0.00 in0.0 mm 0.00 in0.0 mm 0.00 in0.0 mm
03:00 AM 55.6°F13.1°C 54.2°F12.3°C 95% 0.6 mph WSW1.0 kmh WSW 2.3 mph3.7 kmh 30.32 in1026.8 mb 0.00 in0.0 mm 0.00 in0.0 mm 0.00 in0.0 mm
02:48 AM 55.8°F13.2°C 54.4°F12.4°C 95% 0.4 mph WSW0.6 kmh WSW 2.3 mph3.7 kmh 30.32 in1026.8 mb 0.00 in0.0 mm 0.00 in0.0 mm 0.00 in0.0 mm
02:36 AM 55.9°F13.3°C 54.5°F12.5°C 95% 0.3 mph WSW0.5 kmh WSW 2.3 mph3.7 kmh 30.33 in1027.1 mb 0.00 in0.0 mm 0.00 in0.0 mm 0.00 in0.0 mm
02:24 AM 56.5°F13.6°C 55.1°F12.8°C 95% 0.4 mph WSW0.6 kmh WSW 2.3 mph3.7 kmh 30.33 in1027.1 mb 0.00 in0.0 mm 0.00 in0.0 mm 0.00 in0.0 mm
02:12 AM 56.7°F13.7°C 55.0°F12.8°C 94% 0.6 mph WSW1.0 kmh WSW 3.2 mph5.1 kmh 30.33 in1027.1 mb 0.00 in0.0 mm 0.00 in0.0 mm 0.00 in0.0 mm
02:00 AM 56.7°F13.7°C 55.0°F12.8°C 94% Calm Calm 1.6 mph2.6 kmh 30.33 in1027.1 mb 0.00 in0.0 mm 0.00 in0.0 mm 0.00 in0.0 mm
01:48 AM 56.7°F13.7°C 55.0°F12.8°C 94% 0.1 mph WSW0.2 kmh WSW 1.6 mph2.6 kmh 30.33 in1027.1 mb 0.00 in0.0 mm 0.00 in0.0 mm 0.00 in0.0 mm
01:36 AM 56.5°F13.6°C 54.5°F12.5°C 93% 0.1 mph WSW0.2 kmh WSW 1.6 mph2.6 kmh 30.33 in1027.1 mb 0.00 in0.0 mm 0.00 in0.0 mm 0.00 in0.0 mm
01:24 AM 56.7°F13.7°C 54.7°F12.6°C 93% 0.2 mph SW0.3 kmh SW 1.6 mph2.6 kmh 30.33 in1027.1 mb 0.00 in0.0 mm 0.00 in0.0 mm 0.00 in0.0 mm
01:12 AM 56.1°F13.4°C 53.8°F12.1°C 92% Calm Calm 0.7 mph1.1 kmh 30.33 in1027.1 mb 0.00 in0.0 mm 0.00 in0.0 mm 0.00 in0.0 mm
01:00 AM 55.2°F12.9°C 52.9°F11.6°C 92% 0.1 mph S0.2 kmh S 1.6 mph2.6 kmh 30.33 in1027.1 mb 0.00 in0.0 mm 0.00 in0.0 mm 0.00 in0.0 mm
12:48 AM 54.5°F12.5°C 52.2°F11.2°C 92% Calm Calm 0.7 mph1.1 kmh 30.33 in1027.1 mb 0.00 in0.0 mm 0.00 in0.0 mm 0.00 in0.0 mm
12:36 AM 54.3°F12.4°C 51.8°F11.0°C 91% Calm Calm -- 30.34 in1027.4 mb 0.00 in0.0 mm 0.00 in0.0 mm 0.00 in0.0 mm
12:24 AM 54.9°F12.7°C 52.3°F11.3°C 91% Calm Calm 0.7 mph1.1 kmh 30.34 in1027.4 mb 0.00 in0.0 mm 0.00 in0.0 mm 0.00 in0.0 mm
12:12 AM 55.2°F12.9°C 52.6°F11.4°C 91% Calm Calm 0.7 mph1.1 kmh 30.34 in1027.4 mb 0.00 in0.0 mm 0.00 in0.0 mm 0.00 in0.0 mm
12:00 AM 55.2°F12.9°C 52.6°F11.4°C 91% 0.1 mph W0.2 kmh W 1.6 mph2.6 kmh 30.34 in1027.4 mb 0.00 in0.0 mm 0.00 in0.0 mm 0.00 in0.0 mm